sensor_id;sensor_type;location;lat;lon;timestamp;temperature;humidity
25352;DHT22;13304;48.464;8.712;2022-07-24T00:00:30;24.70;58.40
25352;DHT22;13304;48.464;8.712;2022-07-24T00:02:56;24.70;58.60
25352;DHT22;13304;48.464;8.712;2022-07-24T00:05:22;24.70;58.60
25352;DHT22;13304;48.464;8.712;2022-07-24T00:07:47;24.70;58.60
25352;DHT22;13304;48.464;8.712;2022-07-24T00:10:13;24.70;58.60
25352;DHT22;13304;48.464;8.712;2022-07-24T00:12:39;24.70;58.60
25352;DHT22;13304;48.464;8.712;2022-07-24T00:15:06;24.70;58.70
25352;DHT22;13304;48.464;8.712;2022-07-24T00:17:32;24.70;58.60
25352;DHT22;13304;48.464;8.712;2022-07-24T00:19:59;24.70;58.60
25352;DHT22;13304;48.464;8.712;2022-07-24T00:22:24;24.70;58.60
25352;DHT22;13304;48.464;8.712;2022-07-24T00:24:50;24.70;58.60
25352;DHT22;13304;48.464;8.712;2022-07-24T00:27:16;24.60;58.60
25352;DHT22;13304;48.464;8.712;2022-07-24T00:29:42;24.60;58.70
25352;DHT22;13304;48.464;8.712;2022-07-24T00:32:08;24.60;58.80
25352;DHT22;13304;48.464;8.712;2022-07-24T00:34:34;24.60;58.80
25352;DHT22;13304;48.464;8.712;2022-07-24T00:37:00;24.60;58.90
25352;DHT22;13304;48.464;8.712;2022-07-24T00:39:26;24.60;59.10
25352;DHT22;13304;48.464;8.712;2022-07-24T00:41:51;24.60;59.00
25352;DHT22;13304;48.464;8.712;2022-07-24T00:44:18;24.50;59.10
25352;DHT22;13304;48.464;8.712;2022-07-24T00:46:46;24.50;59.20
25352;DHT22;13304;48.464;8.712;2022-07-24T00:49:17;24.50;59.40
25352;DHT22;13304;48.464;8.712;2022-07-24T00:51:45;24.50;59.60
25352;DHT22;13304;48.464;8.712;2022-07-24T00:54:13;24.50;59.60
25352;DHT22;13304;48.464;8.712;2022-07-24T00:56:41;24.40;60.50
25352;DHT22;13304;48.464;8.712;2022-07-24T00:59:08;24.40;60.00
25352;DHT22;13304;48.464;8.712;2022-07-24T01:01:34;24.40;60.00
25352;DHT22;13304;48.464;8.712;2022-07-24T01:04:00;24.30;60.10
25352;DHT22;13304;48.464;8.712;2022-07-24T01:06:26;24.30;60.20
25352;DHT22;13304;48.464;8.712;2022-07-24T01:08:52;24.30;61.20
25352;DHT22;13304;48.464;8.712;2022-07-24T01:11:19;24.30;60.30
25352;DHT22;13304;48.464;8.712;2022-07-24T01:13:47;24.20;60.20
25352;DHT22;13304;48.464;8.712;2022-07-24T01:16:13;24.20;60.30
25352;DHT22;13304;48.464;8.712;2022-07-24T01:18:39;24.20;60.50
25352;DHT22;13304;48.464;8.712;2022-07-24T01:21:05;24.20;60.70
25352;DHT22;13304;48.464;8.712;2022-07-24T01:23:31;24.20;60.90
25352;DHT22;13304;48.464;8.712;2022-07-24T01:25:57;24.10;60.80
25352;DHT22;13304;48.464;8.712;2022-07-24T01:28:23;24.10;60.80
25352;DHT22;13304;48.464;8.712;2022-07-24T01:30:49;24.10;60.90
25352;DHT22;13304;48.464;8.712;2022-07-24T01:33:15;24.00;61.00
25352;DHT22;13304;48.464;8.712;2022-07-24T01:35:41;24.00;61.10
25352;DHT22;13304;48.464;8.712;2022-07-24T01:38:08;24.00;61.20
25352;DHT22;13304;48.464;8.712;2022-07-24T01:40:34;24.00;61.40
25352;DHT22;13304;48.464;8.712;2022-07-24T01:43:00;23.90;61.40
25352;DHT22;13304;48.464;8.712;2022-07-24T01:45:26;23.90;61.50
25352;DHT22;13304;48.464;8.712;2022-07-24T01:47:52;23.90;61.50
25352;DHT22;13304;48.464;8.712;2022-07-24T01:50:18;23.80;61.60
25352;DHT22;13304;48.464;8.712;2022-07-24T01:52:43;23.80;62.50
25352;DHT22;13304;48.464;8.712;2022-07-24T01:55:10;23.70;61.80
25352;DHT22;13304;48.464;8.712;2022-07-24T01:57:36;23.70;62.20
25352;DHT22;13304;48.464;8.712;2022-07-24T02:00:03;23.60;62.30
25352;DHT22;13304;48.464;8.712;2022-07-24T02:02:30;23.60;62.50
25352;DHT22;13304;48.464;8.712;2022-07-24T02:04:55;23.60;62.50
25352;DHT22;13304;48.464;8.712;2022-07-24T02:07:21;23.60;62.60
25352;DHT22;13304;48.464;8.712;2022-07-24T02:09:47;23.50;62.70
25352;DHT22;13304;48.464;8.712;2022-07-24T02:12:13;23.50;62.80
25352;DHT22;13304;48.464;8.712;2022-07-24T02:14:39;23.50;63.00
25352;DHT22;13304;48.464;8.712;2022-07-24T02:17:05;23.50;62.90
25352;DHT22;13304;48.464;8.712;2022-07-24T02:19:31;23.40;62.60
25352;DHT22;13304;48.464;8.712;2022-07-24T02:21:56;23.40;62.50
25352;DHT22;13304;48.464;8.712;2022-07-24T02:24:22;23.40;62.40
25352;DHT22;13304;48.464;8.712;2022-07-24T02:26:49;23.40;62.50
25352;DHT22;13304;48.464;8.712;2022-07-24T02:29:15;23.30;62.70
25352;DHT22;13304;48.464;8.712;2022-07-24T02:31:40;23.30;62.60
25352;DHT22;13304;48.464;8.712;2022-07-24T02:34:06;23.20;62.40
25352;DHT22;13304;48.464;8.712;2022-07-24T02:36:32;23.20;62.50
25352;DHT22;13304;48.464;8.712;2022-07-24T02:38:58;23.20;62.70
25352;DHT22;13304;48.464;8.712;2022-07-24T02:41:23;23.10;62.80
25352;DHT22;13304;48.464;8.712;2022-07-24T02:43:49;23.10;63.00
25352;DHT22;13304;48.464;8.712;2022-07-24T02:46:15;23.10;63.20
25352;DHT22;13304;48.464;8.712;2022-07-24T02:48:41;23.00;63.40
25352;DHT22;13304;48.464;8.712;2022-07-24T02:51:07;23.00;63.60
25352;DHT22;13304;48.464;8.712;2022-07-24T02:53:32;23.00;63.80
25352;DHT22;13304;48.464;8.712;2022-07-24T02:55:58;22.90;63.90
25352;DHT22;13304;48.464;8.712;2022-07-24T02:58:24;22.90;64.10
25352;DHT22;13304;48.464;8.712;2022-07-24T03:00:50;22.90;64.40
25352;DHT22;13304;48.464;8.712;2022-07-24T03:03:15;22.90;64.70
25352;DHT22;13304;48.464;8.712;2022-07-24T03:05:41;22.90;64.80
25352;DHT22;13304;48.464;8.712;2022-07-24T03:08:07;22.90;65.00
25352;DHT22;13304;48.464;8.712;2022-07-24T03:10:33;22.80;65.00
25352;DHT22;13304;48.464;8.712;2022-07-24T03:12:59;22.80;65.30
25352;DHT22;13304;48.464;8.712;2022-07-24T03:15:25;22.80;65.30
25352;DHT22;13304;48.464;8.712;2022-07-24T03:17:54;22.80;65.30
25352;DHT22;13304;48.464;8.712;2022-07-24T03:20:21;22.80;65.40
25352;DHT22;13304;48.464;8.712;2022-07-24T03:22:54;22.80;65.40
25352;DHT22;13304;48.464;8.712;2022-07-24T03:25:22;22.70;65.30
25352;DHT22;13304;48.464;8.712;2022-07-24T03:27:49;22.70;65.20
25352;DHT22;13304;48.464;8.712;2022-07-24T03:30:15;22.70;65.30
25352;DHT22;13304;48.464;8.712;2022-07-24T03:32:41;22.70;65.50
25352;DHT22;13304;48.464;8.712;2022-07-24T03:35:07;22.60;65.30
25352;DHT22;13304;48.464;8.712;2022-07-24T03:37:33;22.60;65.30
25352;DHT22;13304;48.464;8.712;2022-07-24T03:39:59;22.60;65.50
25352;DHT22;13304;48.464;8.712;2022-07-24T03:42:25;22.50;65.50
25352;DHT22;13304;48.464;8.712;2022-07-24T03:44:51;22.50;65.50
25352;DHT22;13304;48.464;8.712;2022-07-24T03:47:16;22.40;65.60
25352;DHT22;13304;48.464;8.712;2022-07-24T03:49:42;22.40;65.90
25352;DHT22;13304;48.464;8.712;2022-07-24T03:52:08;22.30;66.00
25352;DHT22;13304;48.464;8.712;2022-07-24T03:54:34;22.30;66.20
25352;DHT22;13304;48.464;8.712;2022-07-24T03:57:00;22.30;66.30
25352;DHT22;13304;48.464;8.712;2022-07-24T03:59:25;22.30;66.20
25352;DHT22;13304;48.464;8.712;2022-07-24T04:01:51;22.30;66.30
25352;DHT22;13304;48.464;8.712;2022-07-24T04:04:17;22.20;66.20
25352;DHT22;13304;48.464;8.712;2022-07-24T04:06:43;22.20;65.90
25352;DHT22;13304;48.464;8.712;2022-07-24T04:09:09;22.20;65.70
25352;DHT22;13304;48.464;8.712;2022-07-24T04:11:35;22.10;65.60
25352;DHT22;13304;48.464;8.712;2022-07-24T04:14:01;22.10;66.20
25352;DHT22;13304;48.464;8.712;2022-07-24T04:16:27;22.00;66.20
25352;DHT22;13304;48.464;8.712;2022-07-24T04:18:52;22.00;66.20
25352;DHT22;13304;48.464;8.712;2022-07-24T04:21:19;22.00;66.40
25352;DHT22;13304;48.464;8.712;2022-07-24T04:23:44;21.90;66.60
25352;DHT22;13304;48.464;8.712;2022-07-24T04:26:10;21.90;66.80
25352;DHT22;13304;48.464;8.712;2022-07-24T04:28:36;21.90;66.90
25352;DHT22;13304;48.464;8.712;2022-07-24T04:31:03;21.90;66.80
25352;DHT22;13304;48.464;8.712;2022-07-24T04:33:29;21.90;67.20
25352;DHT22;13304;48.464;8.712;2022-07-24T04:35:54;21.90;67.10
25352;DHT22;13304;48.464;8.712;2022-07-24T04:38:20;21.90;67.20
25352;DHT22;13304;48.464;8.712;2022-07-24T04:40:46;21.90;67.10
25352;DHT22;13304;48.464;8.712;2022-07-24T04:43:12;21.90;67.20
25352;DHT22;13304;48.464;8.712;2022-07-24T04:45:38;21.90;67.40
25352;DHT22;13304;48.464;8.712;2022-07-24T04:48:04;21.90;68.00
25352;DHT22;13304;48.464;8.712;2022-07-24T04:50:30;21.90;68.40
25352;DHT22;13304;48.464;8.712;2022-07-24T04:52:56;22.00;68.50
25352;DHT22;13304;48.464;8.712;2022-07-24T04:55:22;22.00;68.40
25352;DHT22;13304;48.464;8.712;2022-07-24T04:57:47;22.10;68.40
25352;DHT22;13304;48.464;8.712;2022-07-24T05:00:14;22.20;68.30
25352;DHT22;13304;48.464;8.712;2022-07-24T05:02:39;22.20;67.90
25352;DHT22;13304;48.464;8.712;2022-07-24T05:05:05;22.30;67.60
25352;DHT22;13304;48.464;8.712;2022-07-24T05:07:32;22.40;67.20
25352;DHT22;13304;48.464;8.712;2022-07-24T05:09:57;22.50;67.00
25352;DHT22;13304;48.464;8.712;2022-07-24T05:12:24;22.50;66.70
25352;DHT22;13304;48.464;8.712;2022-07-24T05:14:50;22.60;66.60
25352;DHT22;13304;48.464;8.712;2022-07-24T05:17:15;22.60;66.60
25352;DHT22;13304;48.464;8.712;2022-07-24T05:19:41;22.60;66.50
25352;DHT22;13304;48.464;8.712;2022-07-24T05:22:07;22.60;66.30
25352;DHT22;13304;48.464;8.712;2022-07-24T05:24:33;22.60;66.10
25352;DHT22;13304;48.464;8.712;2022-07-24T05:26:59;22.70;67.00
25352;DHT22;13304;48.464;8.712;2022-07-24T05:29:24;22.60;66.10
25352;DHT22;13304;48.464;8.712;2022-07-24T05:31:50;22.70;66.30
25352;DHT22;13304;48.464;8.712;2022-07-24T05:34:20;22.70;66.50
25352;DHT22;13304;48.464;8.712;2022-07-24T05:36:46;22.80;66.50
25352;DHT22;13304;48.464;8.712;2022-07-24T05:39:11;22.80;66.40
25352;DHT22;13304;48.464;8.712;2022-07-24T05:41:37;22.90;66.20
25352;DHT22;13304;48.464;8.712;2022-07-24T05:44:03;22.90;66.30
25352;DHT22;13304;48.464;8.712;2022-07-24T05:46:29;23.00;66.40
25352;DHT22;13304;48.464;8.712;2022-07-24T05:48:54;23.00;66.20
25352;DHT22;13304;48.464;8.712;2022-07-24T05:51:20;23.10;66.20
25352;DHT22;13304;48.464;8.712;2022-07-24T05:53:46;23.10;66.00
25352;DHT22;13304;48.464;8.712;2022-07-24T05:56:12;23.20;65.80
25352;DHT22;13304;48.464;8.712;2022-07-24T05:58:37;23.20;65.70
25352;DHT22;13304;48.464;8.712;2022-07-24T06:01:04;23.30;65.80
25352;DHT22;13304;48.464;8.712;2022-07-24T06:03:30;23.30;65.70
25352;DHT22;13304;48.464;8.712;2022-07-24T06:05:56;23.30;65.60
25352;DHT22;13304;48.464;8.712;2022-07-24T06:08:22;23.40;65.50
25352;DHT22;13304;48.464;8.712;2022-07-24T06:10:48;23.40;65.40
25352;DHT22;13304;48.464;8.712;2022-07-24T06:13:13;23.50;65.50
25352;DHT22;13304;48.464;8.712;2022-07-24T06:15:39;23.50;65.60
25352;DHT22;13304;48.464;8.712;2022-07-24T06:18:05;23.50;65.50
25352;DHT22;13304;48.464;8.712;2022-07-24T06:20:30;23.50;65.60
25352;DHT22;13304;48.464;8.712;2022-07-24T06:22:56;23.60;65.90
25352;DHT22;13304;48.464;8.712;2022-07-24T06:25:22;23.60;65.80
25352;DHT22;13304;48.464;8.712;2022-07-24T06:27:49;23.60;65.70
25352;DHT22;13304;48.464;8.712;2022-07-24T06:30:18;23.60;65.60
25352;DHT22;13304;48.464;8.712;2022-07-24T06:32:44;23.70;65.50
25352;DHT22;13304;48.464;8.712;2022-07-24T06:35:10;23.70;65.70
25352;DHT22;13304;48.464;8.712;2022-07-24T06:37:36;23.70;65.80
25352;DHT22;13304;48.464;8.712;2022-07-24T06:40:03;23.70;65.50
25352;DHT22;13304;48.464;8.712;2022-07-24T06:42:29;23.70;65.40
25352;DHT22;13304;48.464;8.712;2022-07-24T06:44:55;23.80;65.70
25352;DHT22;13304;48.464;8.712;2022-07-24T06:47:21;23.80;65.70
25352;DHT22;13304;48.464;8.712;2022-07-24T06:49:47;23.80;65.50
25352;DHT22;13304;48.464;8.712;2022-07-24T06:52:12;23.80;65.10
25352;DHT22;13304;48.464;8.712;2022-07-24T06:54:38;23.90;64.90
25352;DHT22;13304;48.464;8.712;2022-07-24T06:57:04;23.90;64.90
25352;DHT22;13304;48.464;8.712;2022-07-24T06:59:30;24.00;64.90
25352;DHT22;13304;48.464;8.712;2022-07-24T07:01:55;24.10;64.80
25352;DHT22;13304;48.464;8.712;2022-07-24T07:04:21;24.10;64.50
25352;DHT22;13304;48.464;8.712;2022-07-24T07:06:47;24.20;64.60
25352;DHT22;13304;48.464;8.712;2022-07-24T07:09:13;24.20;64.30
25352;DHT22;13304;48.464;8.712;2022-07-24T07:11:39;24.30;63.80
25352;DHT22;13304;48.464;8.712;2022-07-24T07:14:05;24.40;63.70
25352;DHT22;13304;48.464;8.712;2022-07-24T07:16:31;24.40;63.60
25352;DHT22;13304;48.464;8.712;2022-07-24T07:18:56;24.50;64.30
25352;DHT22;13304;48.464;8.712;2022-07-24T07:21:22;24.60;64.20
25352;DHT22;13304;48.464;8.712;2022-07-24T07:23:48;24.70;64.00
25352;DHT22;13304;48.464;8.712;2022-07-24T07:26:14;24.70;63.40
25352;DHT22;13304;48.464;8.712;2022-07-24T07:28:39;24.80;62.80
25352;DHT22;13304;48.464;8.712;2022-07-24T07:31:05;24.90;62.00
25352;DHT22;13304;48.464;8.712;2022-07-24T07:33:31;24.90;61.60
25352;DHT22;13304;48.464;8.712;2022-07-24T07:35:57;25.00;61.20
25352;DHT22;13304;48.464;8.712;2022-07-24T07:38:23;25.10;61.50
25352;DHT22;13304;48.464;8.712;2022-07-24T07:40:48;25.20;61.50
25352;DHT22;13304;48.464;8.712;2022-07-24T07:43:14;25.30;61.60
25352;DHT22;13304;48.464;8.712;2022-07-24T07:45:40;25.30;62.90
25352;DHT22;13304;48.464;8.712;2022-07-24T07:48:06;25.40;61.70
25352;DHT22;13304;48.464;8.712;2022-07-24T07:50:32;25.50;60.70
25352;DHT22;13304;48.464;8.712;2022-07-24T07:52:57;25.50;60.40
25352;DHT22;13304;48.464;8.712;2022-07-24T07:55:23;25.60;59.70
25352;DHT22;13304;48.464;8.712;2022-07-24T07:57:49;25.70;59.50
25352;DHT22;13304;48.464;8.712;2022-07-24T08:00:15;25.70;59.10
25352;DHT22;13304;48.464;8.712;2022-07-24T08:02:42;25.80;58.50
25352;DHT22;13304;48.464;8.712;2022-07-24T08:05:08;25.90;58.70
25352;DHT22;13304;48.464;8.712;2022-07-24T08:07:35;25.90;58.60
25352;DHT22;13304;48.464;8.712;2022-07-24T08:10:00;25.90;58.80
25352;DHT22;13304;48.464;8.712;2022-07-24T08:12:26;26.00;58.40
25352;DHT22;13304;48.464;8.712;2022-07-24T08:14:52;26.10;58.50
25352;DHT22;13304;48.464;8.712;2022-07-24T08:17:18;26.20;58.10
25352;DHT22;13304;48.464;8.712;2022-07-24T08:19:44;26.30;57.50
25352;DHT22;13304;48.464;8.712;2022-07-24T08:22:11;26.40;57.50
25352;DHT22;13304;48.464;8.712;2022-07-24T08:24:37;26.50;56.40
25352;DHT22;13304;48.464;8.712;2022-07-24T08:27:03;26.60;56.00
25352;DHT22;13304;48.464;8.712;2022-07-24T08:29:29;26.60;55.10
25352;DHT22;13304;48.464;8.712;2022-07-24T08:31:55;26.70;54.70
25352;DHT22;13304;48.464;8.712;2022-07-24T08:34:21;26.80;54.40
25352;DHT22;13304;48.464;8.712;2022-07-24T08:36:47;26.90;54.50
25352;DHT22;13304;48.464;8.712;2022-07-24T08:39:13;26.90;54.80
25352;DHT22;13304;48.464;8.712;2022-07-24T08:41:39;27.00;54.20
25352;DHT22;13304;48.464;8.712;2022-07-24T08:44:05;27.00;52.40
25352;DHT22;13304;48.464;8.712;2022-07-24T08:46:31;27.00;52.30
25352;DHT22;13304;48.464;8.712;2022-07-24T08:48:58;27.00;52.10
25352;DHT22;13304;48.464;8.712;2022-07-24T08:51:31;27.00;52.10
25352;DHT22;13304;48.464;8.712;2022-07-24T08:53:57;27.00;52.90
25352;DHT22;13304;48.464;8.712;2022-07-24T08:56:23;27.00;52.80
25352;DHT22;13304;48.464;8.712;2022-07-24T08:58:49;27.10;52.60
25352;DHT22;13304;48.464;8.712;2022-07-24T09:01:15;27.10;52.80
25352;DHT22;13304;48.464;8.712;2022-07-24T09:03:46;27.10;52.30
25352;DHT22;13304;48.464;8.712;2022-07-24T09:06:13;27.10;51.30
25352;DHT22;13304;48.464;8.712;2022-07-24T09:09:04;27.30;52.20
25352;DHT22;13304;48.464;8.712;2022-07-24T09:11:29;27.30;51.00
25352;DHT22;13304;48.464;8.712;2022-07-24T09:14:01;27.30;50.70
25352;DHT22;13304;48.464;8.712;2022-07-24T09:16:46;27.40;50.60
25352;DHT22;13304;48.464;8.712;2022-07-24T09:19:13;27.40;51.50
25352;DHT22;13304;48.464;8.712;2022-07-24T09:21:43;27.50;51.60
25352;DHT22;13304;48.464;8.712;2022-07-24T09:24:20;27.60;52.10
25352;DHT22;13304;48.464;8.712;2022-07-24T09:26:47;27.60;51.90
25352;DHT22;13304;48.464;8.712;2022-07-24T09:29:14;27.60;51.20
25352;DHT22;13304;48.464;8.712;2022-07-24T09:31:59;27.70;51.70
25352;DHT22;13304;48.464;8.712;2022-07-24T09:34:27;27.80;50.80
25352;DHT22;13304;48.464;8.712;2022-07-24T09:36:58;27.90;51.10
25352;DHT22;13304;48.464;8.712;2022-07-24T09:39:25;28.00;50.70
25352;DHT22;13304;48.464;8.712;2022-07-24T09:41:53;28.10;50.70
25352;DHT22;13304;48.464;8.712;2022-07-24T09:44:19;28.20;50.70
25352;DHT22;13304;48.464;8.712;2022-07-24T09:47:08;28.30;50.00
25352;DHT22;13304;48.464;8.712;2022-07-24T09:49:33;28.30;50.00
25352;DHT22;13304;48.464;8.712;2022-07-24T09:54:36;28.40;49.30
25352;DHT22;13304;48.464;8.712;2022-07-24T10:02:17;28.60;49.00
25352;DHT22;13304;48.464;8.712;2022-07-24T10:04:44;28.70;48.60
25352;DHT22;13304;48.464;8.712;2022-07-24T10:07:12;28.70;48.10
25352;DHT22;13304;48.464;8.712;2022-07-24T10:09:43;28.80;48.20
25352;DHT22;13304;48.464;8.712;2022-07-24T10:12:14;28.80;48.10
25352;DHT22;13304;48.464;8.712;2022-07-24T10:14:42;28.90;47.70
25352;DHT22;13304;48.464;8.712;2022-07-24T10:17:11;28.90;48.40
25352;DHT22;13304;48.464;8.712;2022-07-24T10:19:51;29.00;48.40
25352;DHT22;13304;48.464;8.712;2022-07-24T10:22:22;29.00;48.20
25352;DHT22;13304;48.464;8.712;2022-07-24T10:25:13;29.10;47.60
25352;DHT22;13304;48.464;8.712;2022-07-24T10:27:43;29.20;47.20
25352;DHT22;13304;48.464;8.712;2022-07-24T10:30:13;29.30;47.60
25352;DHT22;13304;48.464;8.712;2022-07-24T10:32:40;29.40;46.40
25352;DHT22;13304;48.464;8.712;2022-07-24T10:45:32;29.50;45.10
25352;DHT22;13304;48.464;8.712;2022-07-24T10:48:21;29.60;46.80
25352;DHT22;13304;48.464;8.712;2022-07-24T10:53:30;29.60;45.20
25352;DHT22;13304;48.464;8.712;2022-07-24T10:56:23;29.80;44.80
25352;DHT22;13304;48.464;8.712;2022-07-24T10:59:09;29.80;42.10
25352;DHT22;13304;48.464;8.712;2022-07-24T11:01:47;29.80;44.60
25352;DHT22;13304;48.464;8.712;2022-07-24T11:06:54;29.90;44.20
25352;DHT22;13304;48.464;8.712;2022-07-24T11:09:22;30.00;44.40
25352;DHT22;13304;48.464;8.712;2022-07-24T11:16:50;30.10;43.40
25352;DHT22;13304;48.464;8.712;2022-07-24T11:21:43;30.30;42.40
25352;DHT22;13304;48.464;8.712;2022-07-24T11:26:55;30.40;42.30
25352;DHT22;13304;48.464;8.712;2022-07-24T11:29:27;30.40;41.60
25352;DHT22;13304;48.464;8.712;2022-07-24T11:34:28;30.50;42.10
25352;DHT22;13304;48.464;8.712;2022-07-24T11:36:55;30.50;42.70
25352;DHT22;13304;48.464;8.712;2022-07-24T11:39:30;30.50;42.70
25352;DHT22;13304;48.464;8.712;2022-07-24T11:42:02;30.50;42.70
25352;DHT22;13304;48.464;8.712;2022-07-24T11:44:33;30.60;42.90
25352;DHT22;13304;48.464;8.712;2022-07-24T11:47:06;30.60;43.00
25352;DHT22;13304;48.464;8.712;2022-07-24T11:49:44;30.50;42.70
25352;DHT22;13304;48.464;8.712;2022-07-24T11:52:30;30.50;42.80
25352;DHT22;13304;48.464;8.712;2022-07-24T11:55:01;30.50;42.40
25352;DHT22;13304;48.464;8.712;2022-07-24T11:57:28;30.40;41.80
25352;DHT22;13304;48.464;8.712;2022-07-24T11:59:54;30.30;42.10
25352;DHT22;13304;48.464;8.712;2022-07-24T12:02:21;30.30;42.70
25352;DHT22;13304;48.464;8.712;2022-07-24T12:04:48;30.30;43.10
25352;DHT22;13304;48.464;8.712;2022-07-24T12:07:24;30.30;43.40
25352;DHT22;13304;48.464;8.712;2022-07-24T12:09:59;30.20;43.40
25352;DHT22;13304;48.464;8.712;2022-07-24T12:12:28;30.10;43.30
25352;DHT22;13304;48.464;8.712;2022-07-24T12:15:05;30.20;43.00
25352;DHT22;13304;48.464;8.712;2022-07-24T12:17:33;30.10;42.20
25352;DHT22;13304;48.464;8.712;2022-07-24T12:20:01;30.10;41.70
25352;DHT22;13304;48.464;8.712;2022-07-24T12:22:28;30.20;42.20
25352;DHT22;13304;48.464;8.712;2022-07-24T12:24:55;30.20;43.20
25352;DHT22;13304;48.464;8.712;2022-07-24T12:27:42;30.30;42.70
25352;DHT22;13304;48.464;8.712;2022-07-24T12:35:32;30.30;40.10
25352;DHT22;13304;48.464;8.712;2022-07-24T12:37:59;30.30;40.30
25352;DHT22;13304;48.464;8.712;2022-07-24T12:40:34;30.30;41.00
25352;DHT22;13304;48.464;8.712;2022-07-24T12:43:03;30.40;41.80
25352;DHT22;13304;48.464;8.712;2022-07-24T12:45:29;30.40;41.60
25352;DHT22;13304;48.464;8.712;2022-07-24T12:48:15;30.50;41.50
25352;DHT22;13304;48.464;8.712;2022-07-24T12:51:01;30.50;40.50
25352;DHT22;13304;48.464;8.712;2022-07-24T12:53:28;30.50;41.10
25352;DHT22;13304;48.464;8.712;2022-07-24T12:56:06;30.60;40.30
25352;DHT22;13304;48.464;8.712;2022-07-24T12:58:55;30.60;41.20
25352;DHT22;13304;48.464;8.712;2022-07-24T13:01:23;30.60;41.00
25352;DHT22;13304;48.464;8.712;2022-07-24T13:03:51;30.70;40.70
25352;DHT22;13304;48.464;8.712;2022-07-24T13:06:18;30.70;40.50
25352;DHT22;13304;48.464;8.712;2022-07-24T13:08:43;30.60;40.90
25352;DHT22;13304;48.464;8.712;2022-07-24T13:11:09;30.80;41.00
25352;DHT22;13304;48.464;8.712;2022-07-24T13:13:35;30.80;41.20
25352;DHT22;13304;48.464;8.712;2022-07-24T13:16:00;30.80;40.40
25352;DHT22;13304;48.464;8.712;2022-07-24T13:18:28;30.80;41.30
25352;DHT22;13304;48.464;8.712;2022-07-24T13:20:54;30.70;40.60
25352;DHT22;13304;48.464;8.712;2022-07-24T13:23:19;30.80;40.70
25352;DHT22;13304;48.464;8.712;2022-07-24T13:25:45;30.70;40.30
25352;DHT22;13304;48.464;8.712;2022-07-24T13:28:13;30.70;40.00
25352;DHT22;13304;48.464;8.712;2022-07-24T13:30:39;30.80;40.40
25352;DHT22;13304;48.464;8.712;2022-07-24T13:33:04;30.90;40.80
25352;DHT22;13304;48.464;8.712;2022-07-24T13:35:30;30.80;40.60
25352;DHT22;13304;48.464;8.712;2022-07-24T13:37:56;30.80;40.20
25352;DHT22;13304;48.464;8.712;2022-07-24T13:40:21;30.80;40.00
25352;DHT22;13304;48.464;8.712;2022-07-24T13:42:47;30.80;40.20
25352;DHT22;13304;48.464;8.712;2022-07-24T13:45:13;30.80;40.00
25352;DHT22;13304;48.464;8.712;2022-07-24T13:47:39;30.90;40.00
25352;DHT22;13304;48.464;8.712;2022-07-24T13:50:05;30.90;40.30
25352;DHT22;13304;48.464;8.712;2022-07-24T13:52:31;30.90;40.40
25352;DHT22;13304;48.464;8.712;2022-07-24T13:54:56;30.90;40.90
25352;DHT22;13304;48.464;8.712;2022-07-24T13:57:22;30.90;40.60
25352;DHT22;13304;48.464;8.712;2022-07-24T13:59:48;30.90;40.30
25352;DHT22;13304;48.464;8.712;2022-07-24T14:02:14;30.90;40.50
25352;DHT22;13304;48.464;8.712;2022-07-24T14:04:42;30.90;40.20
25352;DHT22;13304;48.464;8.712;2022-07-24T14:07:09;31.00;39.60
25352;DHT22;13304;48.464;8.712;2022-07-24T14:09:35;31.00;38.70
25352;DHT22;13304;48.464;8.712;2022-07-24T14:12:02;31.00;38.90
25352;DHT22;13304;48.464;8.712;2022-07-24T14:14:28;31.10;39.00
25352;DHT22;13304;48.464;8.712;2022-07-24T14:16:55;31.10;39.30
25352;DHT22;13304;48.464;8.712;2022-07-24T14:19:22;31.10;38.50
25352;DHT22;13304;48.464;8.712;2022-07-24T14:21:48;31.20;38.30
25352;DHT22;13304;48.464;8.712;2022-07-24T14:24:18;31.20;38.10
25352;DHT22;13304;48.464;8.712;2022-07-24T14:26:45;31.20;37.90
25352;DHT22;13304;48.464;8.712;2022-07-24T14:29:14;31.20;38.90
25352;DHT22;13304;48.464;8.712;2022-07-24T14:31:40;31.20;38.10
25352;DHT22;13304;48.464;8.712;2022-07-24T14:34:12;31.30;38.30
25352;DHT22;13304;48.464;8.712;2022-07-24T14:36:39;31.30;38.20
25352;DHT22;13304;48.464;8.712;2022-07-24T14:39:05;31.30;38.20
25352;DHT22;13304;48.464;8.712;2022-07-24T14:41:32;31.40;38.20
25352;DHT22;13304;48.464;8.712;2022-07-24T14:43:58;31.50;38.70
25352;DHT22;13304;48.464;8.712;2022-07-24T14:46:25;31.50;38.80
25352;DHT22;13304;48.464;8.712;2022-07-24T14:48:53;31.50;38.80
25352;DHT22;13304;48.464;8.712;2022-07-24T14:51:19;31.50;37.90
25352;DHT22;13304;48.464;8.712;2022-07-24T14:53:48;31.60;37.70
25352;DHT22;13304;48.464;8.712;2022-07-24T14:56:18;31.60;37.80
25352;DHT22;13304;48.464;8.712;2022-07-24T14:58:44;31.60;37.80
25352;DHT22;13304;48.464;8.712;2022-07-24T15:01:14;31.80;37.70
25352;DHT22;13304;48.464;8.712;2022-07-24T15:03:41;31.90;38.30
25352;DHT22;13304;48.464;8.712;2022-07-24T15:06:07;32.00;38.30
25352;DHT22;13304;48.464;8.712;2022-07-24T15:08:36;32.10;38.00
25352;DHT22;13304;48.464;8.712;2022-07-24T15:11:03;32.20;38.20
25352;DHT22;13304;48.464;8.712;2022-07-24T15:13:29;32.30;38.10
25352;DHT22;13304;48.464;8.712;2022-07-24T15:15:56;32.40;38.30
25352;DHT22;13304;48.464;8.712;2022-07-24T15:18:23;32.60;37.80
25352;DHT22;13304;48.464;8.712;2022-07-24T15:20:51;32.70;37.90
25352;DHT22;13304;48.464;8.712;2022-07-24T15:23:18;32.70;38.40
25352;DHT22;13304;48.464;8.712;2022-07-24T15:25:44;33.10;37.10
25352;DHT22;13304;48.464;8.712;2022-07-24T15:28:10;33.30;37.00
25352;DHT22;13304;48.464;8.712;2022-07-24T15:30:36;33.50;36.40
25352;DHT22;13304;48.464;8.712;2022-07-24T15:33:05;33.70;35.70
25352;DHT22;13304;48.464;8.712;2022-07-24T15:35:34;33.70;36.40
25352;DHT22;13304;48.464;8.712;2022-07-24T15:38:00;33.90;35.10
25352;DHT22;13304;48.464;8.712;2022-07-24T15:40:26;33.90;34.60
25352;DHT22;13304;48.464;8.712;2022-07-24T15:42:54;33.80;34.30
25352;DHT22;13304;48.464;8.712;2022-07-24T15:45:21;33.70;34.30
25352;DHT22;13304;48.464;8.712;2022-07-24T15:47:48;33.60;33.90
25352;DHT22;13304;48.464;8.712;2022-07-24T15:50:14;33.50;34.10
25352;DHT22;13304;48.464;8.712;2022-07-24T15:52:40;33.30;34.30
25352;DHT22;13304;48.464;8.712;2022-07-24T15:55:07;33.20;34.50
25352;DHT22;13304;48.464;8.712;2022-07-24T15:57:33;33.00;34.80
25352;DHT22;13304;48.464;8.712;2022-07-24T15:59:59;32.80;35.30
25352;DHT22;13304;48.464;8.712;2022-07-24T16:02:25;32.70;36.10
25352;DHT22;13304;48.464;8.712;2022-07-24T16:04:54;32.50;35.90
25352;DHT22;13304;48.464;8.712;2022-07-24T16:07:20;32.50;36.40
25352;DHT22;13304;48.464;8.712;2022-07-24T16:09:48;32.40;36.80
25352;DHT22;13304;48.464;8.712;2022-07-24T16:12:15;32.30;36.90